createdAt,value
2022-11-17T00:00:42.793Z,16.80
2022-11-17T00:03:14.743Z,15.53
2022-11-17T00:05:42.590Z,14.00
2022-11-17T00:08:10.447Z,16.33
2022-11-17T00:10:38.312Z,13.97
2022-11-17T00:13:23.913Z,16.17
2022-11-17T00:15:53.180Z,13.07
2022-11-17T00:18:44.060Z,14.37
2022-11-17T00:21:21.137Z,15.17
2022-11-17T00:23:49.909Z,15.97
2022-11-17T00:26:19.562Z,13.80
2022-11-17T00:28:47.416Z,14.83
2022-11-17T00:31:34.013Z,12.10
2022-11-17T00:34:07.933Z,12.93
2022-11-17T00:36:38.512Z,12.90
2022-11-17T00:39:07.310Z,12.87
2022-11-17T00:41:35.197Z,15.20
2022-11-17T00:44:03.179Z,11.47
2022-11-17T00:46:32.864Z,16.20
2022-11-17T00:49:01.094Z,12.60
2022-11-17T00:51:29.077Z,13.03
2022-11-17T00:53:56.917Z,13.27
2022-11-17T00:56:25.490Z,13.70
2022-11-17T00:58:53.616Z,14.73
2022-11-17T01:01:22.356Z,13.10
2022-11-17T01:03:51.596Z,14.13
2022-11-17T01:06:21.186Z,14.40
2022-11-17T01:08:48.988Z,13.47
2022-11-17T01:11:18.264Z,14.27
2022-11-17T01:13:47.700Z,12.53
2022-11-17T01:16:17.232Z,13.37
2022-11-17T01:18:47.139Z,13.47
2022-11-17T01:21:18.302Z,14.50
2022-11-17T01:23:47.414Z,12.70
2022-11-17T01:26:17.286Z,14.47
2022-11-17T01:28:45.716Z,14.00
2022-11-17T01:31:15.426Z,13.07
2022-11-17T01:33:43.677Z,15.10
2022-11-17T01:36:13.729Z,13.33
2022-11-17T01:38:43.050Z,12.50
2022-11-17T01:41:20.299Z,15.30
2022-11-17T01:43:51.047Z,16.27
2022-11-17T01:46:29.634Z,15.73
2022-11-17T01:49:01.821Z,14.70
2022-11-17T01:51:32.087Z,15.57
2022-11-17T01:54:02.095Z,15.40
2022-11-17T01:56:34.599Z,15.63
2022-11-17T01:59:08.116Z,16.70
2022-11-17T02:01:55.504Z,16.17
2022-11-17T02:04:25.579Z,16.90
2022-11-17T02:06:58.135Z,15.33
2022-11-17T02:09:28.517Z,13.70
2022-11-17T02:11:59.734Z,20.70
2022-11-17T02:14:27.609Z,17.07
2022-11-17T02:16:55.469Z,18.60
2022-11-17T02:19:26.174Z,16.20
2022-11-17T02:22:15.107Z,16.20
2022-11-17T02:25:09.051Z,16.83
2022-11-17T02:28:16.329Z,19.40
2022-11-17T02:30:55.337Z,16.63
2022-11-17T02:33:29.398Z,14.50
2022-11-17T02:36:05.322Z,14.90
2022-11-17T02:38:41.036Z,14.73
2022-11-17T02:41:18.613Z,14.03
2022-11-17T02:44:03.958Z,13.27
2022-11-17T02:46:44.610Z,13.67
2022-11-17T02:49:19.724Z,14.27
2022-11-17T02:51:51.093Z,13.33
2022-11-17T02:54:20.531Z,15.30
2022-11-17T02:56:48.334Z,14.40
2022-11-17T02:59:19.779Z,12.53
2022-11-17T03:02:04.821Z,14.77
2022-11-17T03:04:40.361Z,13.63
2022-11-17T03:07:23.004Z,16.17
2022-11-17T03:10:01.521Z,14.80
2022-11-17T03:12:35.824Z,14.47
2022-11-17T03:15:13.438Z,11.17
2022-11-17T03:17:48.977Z,13.70
2022-11-17T03:20:20.984Z,14.77
2022-11-17T03:22:54.194Z,11.60
2022-11-17T03:25:24.779Z,12.60
2022-11-17T03:27:57.358Z,12.40
2022-11-17T03:30:29.951Z,11.40
2022-11-17T03:33:05.823Z,11.70
2022-11-17T03:35:39.496Z,12.13
2022-11-17T03:38:11.747Z,11.07
2022-11-17T03:40:44.352Z,12.87
2022-11-17T03:43:14.039Z,11.30
2022-11-17T03:45:49.101Z,11.33
2022-11-17T03:48:22.877Z,13.23
2022-11-17T03:50:55.627Z,14.20
2022-11-17T03:53:24.176Z,15.30
2022-11-17T03:55:59.005Z,13.43
2022-11-17T03:58:30.984Z,11.43
2022-11-17T04:01:02.709Z,11.63
2022-11-17T04:03:31.881Z,11.37
2022-11-17T04:05:59.945Z,11.07
2022-11-17T04:08:30.497Z,12.10
2022-11-17T04:11:16.075Z,12.17
2022-11-17T04:14:01.685Z,12.33
2022-11-17T04:16:30.909Z,13.37
2022-11-17T04:18:59.188Z,14.10
2022-11-17T04:21:27.265Z,10.07
2022-11-17T04:23:56.031Z,11.50
2022-11-17T04:26:41.543Z,12.17
2022-11-17T04:29:09.387Z,12.40
2022-11-17T04:31:38.572Z,12.20
2022-11-17T04:34:07.908Z,10.43
2022-11-17T04:36:37.781Z,11.47
2022-11-17T04:39:05.790Z,13.40
2022-11-17T04:41:53.140Z,12.50
2022-11-17T04:44:22.397Z,12.43
2022-11-17T04:46:51.646Z,12.20
2022-11-17T04:49:21.397Z,12.83
2022-11-17T04:51:50.379Z,11.77
2022-11-17T04:54:21.703Z,13.20
2022-11-17T04:56:49.539Z,13.97
2022-11-17T04:59:17.346Z,12.63
2022-11-17T05:01:45.315Z,12.40
2022-11-17T05:04:36.629Z,11.33
2022-11-17T05:07:05.169Z,11.47
2022-11-17T05:09:33.100Z,11.57
2022-11-17T05:12:18.192Z,12.97
2022-11-17T05:14:47.575Z,12.47
2022-11-17T05:17:14.469Z,12.67
2022-11-17T05:19:45.265Z,13.37
2022-11-17T05:22:32.467Z,17.50
2022-11-17T05:25:00.301Z,20.23
2022-11-17T05:27:28.477Z,15.20
2022-11-17T05:29:56.328Z,11.73
2022-11-17T05:32:24.177Z,14.20
2022-11-17T05:34:53.419Z,15.30
2022-11-17T05:37:21.246Z,15.40
2022-11-17T05:39:49.082Z,13.33
2022-11-17T05:42:16.951Z,15.50
2022-11-17T05:44:44.818Z,12.00
2022-11-17T05:47:12.607Z,13.20
2022-11-17T05:49:40.512Z,11.80
2022-11-17T05:52:09.814Z,14.77
2022-11-17T05:54:37.786Z,14.07
2022-11-17T05:57:10.437Z,14.93
2022-11-17T05:59:41.597Z,14.47
2022-11-17T06:02:14.861Z,14.80
2022-11-17T06:04:42.861Z,13.17
2022-11-17T06:07:12.337Z,14.53
2022-11-17T06:09:42.495Z,14.00
2022-11-17T06:12:11.923Z,13.60
2022-11-17T06:14:39.962Z,15.07
2022-11-17T06:17:13.409Z,12.50
2022-11-17T06:19:46.534Z,14.30
2022-11-17T06:22:15.865Z,13.70
2022-11-17T06:24:45.071Z,13.73
2022-11-17T06:27:14.947Z,15.77
2022-11-17T06:29:44.838Z,13.63
2022-11-17T06:32:13.863Z,13.90
2022-11-17T06:34:42.231Z,15.40
2022-11-17T06:37:11.221Z,12.73
2022-11-17T06:39:40.505Z,13.57
2022-11-17T06:42:08.290Z,14.23
2022-11-17T06:44:36.197Z,15.40
2022-11-17T06:47:04.140Z,13.70
2022-11-17T06:49:32.052Z,15.47
2022-11-17T06:51:59.865Z,15.60
2022-11-17T06:54:27.738Z,16.53
2022-11-17T06:56:57.074Z,16.75
2022-11-17T06:59:25.023Z,16.00
2022-11-17T07:01:52.847Z,16.77
2022-11-17T07:04:20.693Z,16.80
2022-11-17T07:06:48.668Z,14.67
2022-11-17T07:09:16.480Z,14.00
2022-11-17T07:11:44.314Z,18.97
2022-11-17T07:14:13.482Z,14.60
2022-11-17T07:16:42.865Z,15.80
2022-11-17T07:19:11.319Z,15.17
2022-11-17T07:21:39.157Z,13.07
2022-11-17T07:24:07.487Z,14.57
2022-11-17T07:26:35.329Z,13.50
2022-11-17T07:29:03.165Z,13.43
2022-11-17T07:31:32.355Z,16.07
2022-11-17T07:34:00.178Z,17.67
2022-11-17T07:36:27.970Z,12.87
2022-11-17T07:38:55.827Z,16.77
2022-11-17T07:41:23.648Z,15.33
2022-11-17T07:43:51.455Z,14.10
2022-11-17T07:46:19.403Z,17.63
2022-11-17T07:48:48.588Z,12.97
2022-11-17T07:51:17.386Z,12.77
2022-11-17T07:53:45.232Z,15.37
2022-11-17T07:56:13.134Z,12.80
2022-11-17T07:58:44.376Z,15.40
2022-11-17T08:01:15.319Z,13.17
2022-11-17T08:03:43.343Z,16.67
2022-11-17T08:06:12.834Z,14.13
2022-11-17T08:08:40.941Z,13.17
2022-11-17T08:11:11.148Z,11.37
2022-11-17T08:13:40.466Z,16.20
2022-11-17T08:16:10.268Z,12.70
2022-11-17T08:18:38.619Z,12.77
2022-11-17T08:21:09.203Z,14.03
2022-11-17T08:23:38.684Z,12.87
2022-11-17T08:26:08.214Z,11.20
2022-11-17T08:28:36.589Z,12.50
2022-11-17T08:31:06.201Z,10.40
2022-11-17T08:33:34.647Z,11.37
2022-11-17T08:36:03.330Z,11.73
2022-11-17T08:38:31.987Z,12.40
2022-11-17T08:41:04.145Z,12.57
2022-11-17T08:43:31.979Z,11.53
2022-11-17T08:45:59.864Z,10.80
2022-11-17T08:48:29.430Z,12.40
2022-11-17T08:50:57.411Z,12.13
2022-11-17T08:53:25.292Z,12.37
2022-11-17T08:55:53.157Z,11.47
2022-11-17T08:58:22.358Z,12.33
2022-11-17T09:00:50.250Z,11.37
2022-11-17T09:03:18.238Z,11.67
2022-11-17T09:05:48.396Z,10.10
2022-11-17T09:08:44.067Z,10.63
2022-11-17T09:11:06.376Z,13.93
2022-11-17T09:13:36.088Z,11.40
2022-11-17T09:16:04.385Z,10.37
2022-11-17T09:18:32.523Z,9.33
2022-11-17T09:21:01.927Z,10.27
2022-11-17T09:23:30.021Z,8.33
2022-11-17T09:25:58.072Z,8.67
2022-11-17T09:28:26.622Z,8.70
2022-11-17T09:30:55.994Z,9.87
2022-11-17T09:33:23.915Z,10.40
2022-11-17T09:35:51.751Z,10.60
2022-11-17T09:38:20.153Z,8.90
2022-11-17T09:40:48.019Z,8.43
2022-11-17T09:43:24.322Z,8.80
2022-11-17T09:45:56.010Z,8.70
2022-11-17T09:48:41.781Z,10.20
2022-11-17T09:51:17.116Z,9.80
2022-11-17T09:53:51.576Z,8.30
2022-11-17T09:56:19.539Z,9.00
2022-11-17T09:58:51.930Z,8.37
2022-11-17T10:01:24.416Z,10.23
2022-11-17T10:03:53.602Z,9.03
2022-11-17T10:06:23.342Z,9.80
2022-11-17T10:09:00.315Z,10.90
2022-11-17T10:11:35.003Z,9.07
2022-11-17T10:14:11.058Z,10.73
2022-11-17T10:16:42.857Z,8.93
2022-11-17T10:19:16.669Z,9.17
2022-11-17T10:21:44.810Z,8.47
2022-11-17T10:24:12.796Z,9.53
2022-11-17T10:26:48.867Z,12.70
2022-11-17T10:29:23.901Z,7.57
2022-11-17T10:31:53.121Z,9.90
2022-11-17T10:34:40.523Z,8.23
2022-11-17T10:37:28.380Z,9.63
2022-11-17T10:40:18.195Z,9.43
2022-11-17T10:42:57.856Z,8.80
2022-11-17T10:45:26.045Z,8.37
2022-11-17T10:48:09.956Z,10.80
2022-11-17T10:50:38.031Z,9.20
2022-11-17T10:53:30.736Z,9.87
2022-11-17T10:56:03.606Z,11.00
2022-11-17T10:58:34.192Z,9.33
2022-11-17T11:01:04.299Z,10.50
2022-11-17T11:03:35.571Z,8.53
2022-11-17T11:06:07.070Z,9.40
2022-11-17T11:08:42.091Z,9.90
2022-11-17T11:11:18.919Z,9.47
2022-11-17T11:13:53.042Z,8.67
2022-11-17T11:16:21.087Z,10.57
2022-11-17T11:18:52.976Z,12.27
2022-11-17T11:21:36.112Z,10.27
2022-11-17T11:24:12.486Z,8.80
2022-11-17T11:26:52.042Z,8.13
2022-11-17T11:29:29.617Z,9.20
2022-11-17T11:32:10.533Z,10.00
2022-11-17T11:35:03.876Z,8.67
2022-11-17T11:37:38.888Z,8.60
2022-11-17T11:40:16.023Z,13.10
2022-11-17T11:42:51.894Z,10.30
2022-11-17T11:45:24.745Z,8.47
2022-11-17T11:48:09.868Z,10.13
2022-11-17T11:50:48.380Z,8.87
2022-11-17T11:53:22.349Z,9.73
2022-11-17T11:55:55.894Z,8.17
2022-11-17T11:58:25.363Z,7.70
2022-11-17T12:00:57.359Z,9.40
2022-11-17T12:03:29.851Z,9.10
2022-11-17T12:06:28.834Z,8.90
2022-11-17T12:09:03.945Z,8.07
2022-11-17T12:11:50.922Z,9.33
2022-11-17T12:14:20.096Z,8.03
2022-11-17T12:16:49.087Z,9.00
2022-11-17T12:19:50.177Z,9.60
2022-11-17T12:22:40.110Z,7.90
2022-11-17T12:25:17.118Z,8.73
2022-11-17T12:27:46.782Z,8.57
2022-11-17T12:30:57.737Z,8.50
2022-11-17T12:33:53.820Z,9.40
2022-11-17T12:36:31.568Z,8.57
2022-11-17T12:39:01.741Z,9.30
2022-11-17T12:42:07.454Z,8.00
2022-11-17T12:45:05.994Z,8.20
2022-11-17T12:47:35.637Z,10.30
2022-11-17T12:50:31.961Z,11.90
2022-11-17T12:53:27.557Z,9.73
2022-11-17T12:56:13.124Z,9.60
2022-11-17T12:58:52.292Z,9.57
2022-11-17T13:01:29.090Z,10.33
2022-11-17T13:04:02.030Z,10.93
2022-11-17T13:06:37.221Z,10.13
2022-11-17T13:09:07.325Z,10.37
2022-11-17T13:11:37.767Z,9.10
2022-11-17T13:14:13.940Z,8.87
2022-11-17T13:16:49.811Z,10.63
2022-11-17T13:19:36.362Z,10.43
2022-11-17T13:22:06.562Z,9.00
2022-11-17T13:24:36.835Z,10.67
2022-11-17T13:27:17.699Z,9.23
2022-11-17T13:29:45.546Z,9.17
2022-11-17T13:32:16.591Z,10.10
2022-11-17T13:34:53.260Z,10.40
2022-11-17T13:37:23.360Z,10.40
2022-11-17T13:39:59.782Z,9.83
2022-11-17T13:42:32.238Z,10.73
2022-11-17T13:45:02.621Z,10.50
2022-11-17T13:47:45.325Z,9.87
2022-11-17T13:50:24.465Z,10.30
2022-11-17T13:52:56.744Z,10.47
2022-11-17T13:55:25.755Z,9.73
2022-11-17T13:57:59.584Z,12.07
2022-11-17T14:00:28.328Z,9.83
2022-11-17T14:02:57.120Z,10.87
2022-11-17T14:05:27.573Z,10.50
2022-11-17T14:07:57.756Z,11.90
2022-11-17T14:10:32.245Z,10.20
2022-11-17T14:13:23.001Z,12.27
2022-11-17T14:16:00.654Z,11.70
2022-11-17T14:18:31.697Z,10.20
2022-11-17T14:21:11.642Z,12.20
2022-11-17T14:23:40.205Z,10.83
2022-11-17T14:26:18.042Z,10.87
2022-11-17T14:28:48.306Z,11.23
2022-11-17T14:31:16.331Z,11.50
2022-11-17T14:33:44.178Z,20.20
2022-11-17T14:36:15.454Z,10.63
2022-11-17T14:38:44.598Z,10.33
2022-11-17T14:41:12.435Z,14.37
2022-11-17T14:43:40.225Z,11.20
2022-11-17T14:46:18.236Z,12.13
2022-11-17T14:48:46.086Z,16.20
2022-11-17T14:51:17.280Z,12.13
2022-11-17T14:53:45.906Z,12.57
2022-11-17T14:56:16.690Z,8.80
2022-11-17T14:58:44.583Z,13.00
2022-11-17T15:01:17.309Z,10.87
2022-11-17T15:03:45.379Z,10.87
2022-11-17T15:06:19.506Z,10.20
2022-11-17T15:08:48.667Z,10.50
2022-11-17T15:11:18.408Z,11.63
2022-11-17T15:13:46.345Z,10.83
2022-11-17T15:16:15.632Z,11.60
2022-11-17T15:18:46.080Z,11.13
2022-11-17T15:21:14.799Z,10.90
2022-11-17T15:23:43.330Z,11.10
2022-11-17T15:26:14.031Z,10.93
2022-11-17T15:28:42.441Z,10.90
2022-11-17T15:31:12.020Z,10.80
2022-11-17T15:33:41.973Z,11.53
2022-11-17T15:36:11.489Z,10.70
2022-11-17T15:38:40.542Z,11.73
2022-11-17T15:41:09.756Z,12.10
2022-11-17T15:43:39.391Z,12.03
2022-11-17T15:46:08.862Z,11.03
2022-11-17T15:48:40.055Z,12.97
2022-11-17T15:51:11.086Z,10.97
2022-11-17T15:53:39.560Z,9.90
2022-11-17T15:56:09.545Z,12.30
2022-11-17T15:58:37.884Z,11.70
2022-11-17T16:01:10.298Z,10.70
2022-11-17T16:03:38.492Z,10.33
2022-11-17T16:06:06.830Z,10.23
2022-11-17T16:08:36.322Z,10.23
2022-11-17T16:11:04.758Z,9.40
2022-11-17T16:13:32.819Z,9.23
2022-11-17T16:16:00.772Z,9.40
2022-11-17T16:18:28.589Z,9.80
2022-11-17T16:21:00.176Z,10.30
2022-11-17T16:23:32.360Z,10.47
2022-11-17T16:26:02.992Z,9.10
2022-11-17T16:28:30.862Z,8.80
2022-11-17T16:30:58.767Z,9.07
2022-11-17T16:33:27.035Z,10.67
2022-11-17T16:35:54.885Z,8.90
2022-11-17T16:38:22.690Z,8.30
2022-11-17T16:40:50.589Z,9.57
2022-11-17T16:43:19.832Z,9.80
2022-11-17T16:45:47.633Z,9.00
2022-11-17T16:48:15.525Z,9.03
2022-11-17T16:50:43.455Z,9.27
2022-11-17T16:53:11.331Z,11.70
2022-11-17T16:55:39.706Z,9.33
2022-11-17T16:58:08.780Z,11.60
2022-11-17T17:00:38.311Z,9.40
2022-11-17T17:03:06.264Z,9.30
2022-11-17T17:05:40.242Z,11.60
2022-11-17T17:08:08.068Z,10.40
2022-11-17T17:10:35.894Z,10.40
2022-11-17T17:13:03.775Z,9.43
2022-11-17T17:15:31.623Z,9.33
2022-11-17T17:18:00.835Z,11.40
2022-11-17T17:20:28.642Z,10.43
2022-11-17T17:23:01.730Z,11.17
2022-11-17T17:25:30.796Z,9.60
2022-11-17T17:27:58.650Z,10.03
2022-11-17T17:30:26.499Z,9.73
2022-11-17T17:32:54.413Z,11.27
2022-11-17T17:35:23.599Z,9.17
2022-11-17T17:37:51.432Z,10.77
2022-11-17T17:40:19.384Z,9.10
2022-11-17T17:42:47.471Z,10.70
2022-11-17T17:45:15.425Z,10.50
2022-11-17T17:47:43.247Z,9.93
2022-11-17T17:50:11.197Z,9.83
2022-11-17T17:52:40.469Z,9.70
2022-11-17T17:55:08.947Z,11.83
2022-11-17T17:57:36.808Z,10.80
2022-11-17T18:00:05.913Z,10.30
2022-11-17T18:02:34.704Z,10.63
2022-11-17T18:05:03.639Z,10.30
2022-11-17T18:07:31.956Z,10.60
2022-11-17T18:10:01.133Z,10.40
2022-11-17T18:12:28.943Z,10.10
2022-11-17T18:14:56.734Z,11.47
2022-11-17T18:17:24.597Z,11.70
2022-11-17T18:19:52.482Z,10.87
2022-11-17T18:22:20.270Z,10.30
2022-11-17T18:24:48.070Z,11.67
2022-11-17T18:27:17.225Z,10.33
2022-11-17T18:29:45.072Z,11.70
2022-11-17T18:32:12.878Z,13.10
2022-11-17T18:34:41.765Z,11.47
2022-11-17T18:37:09.621Z,10.73
2022-11-17T18:39:38.176Z,11.70
2022-11-17T18:42:06.277Z,10.73
2022-11-17T18:44:35.425Z,10.57
2022-11-17T18:47:03.437Z,12.37
2022-11-17T18:49:31.401Z,12.50
2022-11-17T18:52:00.267Z,13.20
2022-11-17T18:54:28.081Z,12.40
2022-11-17T18:56:56.172Z,15.23
2022-11-17T18:59:23.977Z,13.43
2022-11-17T19:01:53.125Z,12.90
2022-11-17T19:04:21.122Z,12.50
2022-11-17T19:06:48.930Z,14.30
2022-11-17T19:09:17.738Z,16.00
2022-11-17T19:11:45.874Z,14.87
2022-11-17T19:14:13.755Z,15.07
2022-11-17T19:16:44.799Z,17.37
2022-11-17T19:19:15.165Z,14.80
2022-11-17T19:21:44.123Z,16.93
2022-11-17T19:24:11.956Z,14.00
2022-11-17T19:26:39.885Z,15.40
2022-11-17T19:29:16.072Z,16.63
2022-11-17T19:31:45.627Z,16.70
2022-11-17T19:34:15.101Z,19.40
2022-11-17T19:36:44.408Z,15.77
2022-11-17T19:39:13.435Z,16.90
2022-11-17T19:41:41.496Z,17.77
2022-11-17T19:44:10.277Z,16.53
2022-11-17T19:46:39.243Z,17.93
2022-11-17T19:49:08.805Z,15.67
2022-11-17T19:51:38.332Z,18.53
2022-11-17T19:54:08.285Z,18.57
2022-11-17T19:56:36.609Z,17.13
2022-11-17T19:59:04.738Z,18.67
2022-11-17T20:01:33.685Z,22.37
2022-11-17T20:04:02.639Z,18.37
2022-11-17T20:06:34.730Z,17.53
2022-11-17T20:09:08.004Z,18.87
2022-11-17T20:11:37.465Z,19.97
2022-11-17T20:14:05.642Z,22.20
2022-11-17T20:16:34.098Z,19.60
2022-11-17T20:19:02.866Z,19.90
2022-11-17T20:21:31.719Z,20.57
2022-11-17T20:24:01.092Z,18.60
2022-11-17T20:26:32.222Z,22.50
2022-11-17T20:29:00.962Z,18.83
2022-11-17T20:31:31.681Z,19.80
2022-11-17T20:34:00.775Z,21.20
2022-11-17T20:36:29.451Z,19.33
2022-11-17T20:38:58.979Z,20.87
2022-11-17T20:41:27.629Z,18.80
2022-11-17T20:43:58.597Z,18.87
2022-11-17T20:46:27.087Z,20.90
2022-11-17T20:48:55.453Z,28.70
2022-11-17T20:51:26.902Z,24.13
2022-11-17T20:53:55.047Z,23.20
2022-11-17T20:56:22.929Z,18.30
2022-11-17T20:58:50.867Z,22.70
2022-11-17T21:01:22.999Z,20.10
2022-11-17T21:03:51.260Z,20.43
2022-11-17T21:06:20.039Z,24.77
2022-11-17T21:08:48.233Z,19.60
2022-11-17T21:11:31.856Z,22.20
2022-11-17T21:13:59.908Z,24.00
2022-11-17T21:16:29.509Z,23.87
2022-11-17T21:18:57.432Z,25.50
2022-11-17T21:21:25.517Z,22.87
2022-11-17T21:23:54.571Z,27.43
2022-11-17T21:26:23.759Z,25.67
2022-11-17T21:28:52.397Z,25.33
2022-11-17T21:31:22.145Z,22.93
2022-11-17T21:33:55.619Z,20.23
2022-11-17T21:36:24.981Z,22.03
2022-11-17T21:38:53.277Z,25.20
2022-11-17T21:41:22.254Z,23.70
2022-11-17T21:43:51.920Z,21.73
2022-11-17T21:46:22.346Z,22.40
2022-11-17T21:48:52.523Z,20.93
2022-11-17T21:51:22.526Z,21.90
2022-11-17T21:53:53.748Z,20.37
2022-11-17T21:56:25.564Z,24.63
2022-11-17T21:58:55.458Z,21.43
2022-11-17T22:01:23.406Z,21.17
2022-11-17T22:03:53.085Z,24.33
2022-11-17T22:06:22.820Z,19.80
2022-11-17T22:08:51.525Z,24.00
2022-11-17T22:11:35.106Z,20.10
2022-11-17T22:14:05.457Z,20.30
2022-11-17T22:16:33.893Z,21.90
2022-11-17T22:19:03.830Z,24.20
2022-11-17T22:21:31.791Z,22.17
2022-11-17T22:24:00.883Z,23.23
2022-11-17T22:26:31.740Z,22.27
2022-11-17T22:29:00.515Z,21.80
2022-11-17T22:31:28.632Z,24.30
2022-11-17T22:33:56.545Z,28.10
2022-11-17T22:36:25.847Z,23.77
2022-11-17T22:38:54.016Z,24.70
2022-11-17T22:41:23.447Z,24.30
2022-11-17T22:43:52.069Z,22.80
2022-11-17T22:46:21.112Z,22.53
2022-11-17T22:48:49.491Z,22.30
2022-11-17T22:51:33.653Z,20.80
2022-11-17T22:54:03.193Z,23.40
2022-11-17T22:56:31.314Z,22.83
2022-11-17T22:58:59.930Z,22.87
2022-11-17T23:01:28.190Z,21.00
2022-11-17T23:03:55.998Z,21.33
2022-11-17T23:06:24.190Z,21.43
2022-11-17T23:08:52.427Z,24.70
2022-11-17T23:11:36.563Z,20.73
2022-11-17T23:14:06.734Z,25.73
2022-11-17T23:16:34.666Z,25.07
2022-11-17T23:19:02.654Z,21.47
2022-11-17T23:21:30.490Z,23.33
2022-11-17T23:23:58.324Z,22.33
2022-11-17T23:26:27.635Z,21.17
2022-11-17T23:28:55.577Z,19.87
2022-11-17T23:31:23.529Z,18.30
2022-11-17T23:33:51.556Z,19.20
2022-11-17T23:36:21.079Z,17.90
2022-11-17T23:38:49.672Z,17.20
2022-11-17T23:41:20.312Z,16.13
2022-11-17T23:43:50.888Z,19.50
2022-11-17T23:46:20.629Z,15.97
2022-11-17T23:48:48.738Z,16.17
2022-11-17T23:51:18.280Z,16.67
2022-11-17T23:53:47.462Z,17.87
2022-11-17T23:56:15.618Z,16.60
2022-11-17T23:58:44.538Z,20.37
